Littleton, Massachusetts
Current Conditions -  °F | °C
As of 3:52 PM on Saturday 22 Nov 2014 (Local Time) from KFIT Reporting Station
Broken Clouds Broken Clouds  
Wind Chill: 37°   Ceiling: 10000
Heat Index: 41°   Visibility: 10mi
Dew Point:   Wind: 6mph
Humidity: 25%   Direction: 220°SW
Pressure: 30.14"   Gusts: NA
Location:  42.54°N, 71.51°W
Report Text: KFIT 222052Z AUTO 22005KT 10SM BKN100 05/M14 A3014 RMK AO2 SLP212 T00501139 56020
Loading
Personal Weather Stations






























Interactive Weather Map New forecast layout! Learn more

10-Day Weather Forecast

Advertisements
Track Severe Weather on mobile